< < Back
Terminal Aerodrome Forecast


Current Version              Previous Versions:   1  2  3  4  5  6  7  8  9  

Terminal Aerodrome Forecast

755
FTUS42 KTAE 200542
TAFABY
TAF
KABY 200542Z 2006/2106 20005KT P6SM FEW007 BKN200
     FM200700 21004KT 4SM BR OVC007
      TEMPO 2010/2013 1SM BR OVC003
     FM201500 23013G20KT P6SM SHRA FEW010 BKN100
     FM201700 23012G18KT P6SM VCTS SCT030CB
     FM202300 26009KT P6SM VCTS SCT030CB BKN100=

Latest METAR

669
SAUS70 KWBC 210500
MTRABY
METAR KABY 210453Z AUTO 28005KT 10SM CLR 19/18 A2991 RMK AO2 SLP128
T01940183 402280178


USA.gov is the U.S. government's official web portal to all federal, state and local government web resources and services.